Wartburg, Tennessee
Current Conditions -  °F | °C
As of 11:53 AM on Tuesday 27 Jan 2015 (Local Time) from KOQT Reporting Station
Overcast Overcast  
Wind Chill:   Ceiling: 1900
Heat Index:   Visibility: 10mi
Dew Point: -1°   Wind: 3mph
Humidity: 82%   Direction: 90°E
Pressure: 30.02"   Gusts: NA
Location:  36.1°N, 84.6°W
Report Text: KOQT 271653Z AUTO 09003KT 10SM OVC019 02/M01 A3002 RMK AO2 SLP179 T00171011
Loading
Personal Weather Stations






























Interactive Weather Map New forecast layout! Learn more

10-Day Weather Forecast

Advertisements
Track Severe Weather on mobile